sensor_id;sensor_type;location;lat;lon;timestamp;P1;durP1;ratioP1;P2;durP2;ratioP2
66546;SDS011;53400;50.364;14.874;2022-11-20T00:02:20;59.38;;;27.23;;
66546;SDS011;53400;50.364;14.874;2022-11-20T00:04:48;66.28;;;29.35;;
66546;SDS011;53400;50.364;14.874;2022-11-20T00:07:14;72.90;;;31.17;;
66546;SDS011;53400;50.364;14.874;2022-11-20T00:09:40;62.83;;;29.48;;
66546;SDS011;53400;50.364;14.874;2022-11-20T00:12:06;74.57;;;30.88;;
66546;SDS011;53400;50.364;14.874;2022-11-20T00:14:32;76.55;;;31.58;;
66546;SDS011;53400;50.364;14.874;2022-11-20T00:16:58;70.10;;;31.40;;
66546;SDS011;53400;50.364;14.874;2022-11-20T00:19:24;58.00;;;28.10;;
66546;SDS011;53400;50.364;14.874;2022-11-20T00:21:51;71.90;;;32.50;;
66546;SDS011;53400;50.364;14.874;2022-11-20T00:24:19;73.25;;;31.17;;
66546;SDS011;53400;50.364;14.874;2022-11-20T00:26:44;77.30;;;33.97;;
66546;SDS011;53400;50.364;14.874;2022-11-20T00:29:11;76.60;;;33.10;;
66546;SDS011;53400;50.364;14.874;2022-11-20T00:31:37;73.68;;;33.47;;
66546;SDS011;53400;50.364;14.874;2022-11-20T00:34:03;59.67;;;28.75;;
66546;SDS011;53400;50.364;14.874;2022-11-20T00:36:31;55.00;;;26.88;;
66546;SDS011;53400;50.364;14.874;2022-11-20T00:38:59;60.15;;;27.33;;
66546;SDS011;53400;50.364;14.874;2022-11-20T00:41:25;61.22;;;29.58;;
66546;SDS011;53400;50.364;14.874;2022-11-20T00:43:53;59.15;;;26.65;;
66546;SDS011;53400;50.364;14.874;2022-11-20T00:46:20;54.47;;;26.88;;
66546;SDS011;53400;50.364;14.874;2022-11-20T00:48:47;52.00;;;25.55;;
66546;SDS011;53400;50.364;14.874;2022-11-20T00:51:14;65.18;;;28.75;;
66546;SDS011;53400;50.364;14.874;2022-11-20T00:53:42;77.53;;;31.15;;
66546;SDS011;53400;50.364;14.874;2022-11-20T00:56:11;69.97;;;29.65;;
66546;SDS011;53400;50.364;14.874;2022-11-20T00:58:40;72.60;;;28.23;;
66546;SDS011;53400;50.364;14.874;2022-11-20T01:01:08;62.35;;;26.35;;
66546;SDS011;53400;50.364;14.874;2022-11-20T01:03:36;52.63;;;24.15;;
66546;SDS011;53400;50.364;14.874;2022-11-20T01:06:03;60.08;;;30.55;;
66546;SDS011;53400;50.364;14.874;2022-11-20T01:08:31;55.72;;;24.35;;
66546;SDS011;53400;50.364;14.874;2022-11-20T01:10:59;55.83;;;24.73;;
66546;SDS011;53400;50.364;14.874;2022-11-20T01:13:28;56.97;;;25.08;;
66546;SDS011;53400;50.364;14.874;2022-11-20T01:16:04;52.83;;;24.55;;
66546;SDS011;53400;50.364;14.874;2022-11-20T01:18:31;52.50;;;24.70;;
66546;SDS011;53400;50.364;14.874;2022-11-20T01:20:59;57.47;;;25.60;;
66546;SDS011;53400;50.364;14.874;2022-11-20T01:23:29;47.17;;;23.08;;
66546;SDS011;53400;50.364;14.874;2022-11-20T01:25:56;48.90;;;25.67;;
66546;SDS011;53400;50.364;14.874;2022-11-20T01:28:22;50.03;;;24.75;;
66546;SDS011;53400;50.364;14.874;2022-11-20T01:30:49;52.25;;;26.17;;
66546;SDS011;53400;50.364;14.874;2022-11-20T01:33:15;60.80;;;25.10;;
66546;SDS011;53400;50.364;14.874;2022-11-20T01:35:41;53.28;;;24.55;;
66546;SDS011;53400;50.364;14.874;2022-11-20T01:38:07;48.70;;;24.17;;
66546;SDS011;53400;50.364;14.874;2022-11-20T01:40:33;67.22;;;29.67;;
66546;SDS011;53400;50.364;14.874;2022-11-20T01:43:04;65.53;;;29.77;;
66546;SDS011;53400;50.364;14.874;2022-11-20T01:45:55;70.57;;;30.95;;
66546;SDS011;53400;50.364;14.874;2022-11-20T01:48:42;76.70;;;33.17;;
66546;SDS011;53400;50.364;14.874;2022-11-20T01:51:15;80.60;;;33.90;;
66546;SDS011;53400;50.364;14.874;2022-11-20T01:53:46;82.60;;;36.90;;
66546;SDS011;53400;50.364;14.874;2022-11-20T01:56:12;78.82;;;34.85;;
66546;SDS011;53400;50.364;14.874;2022-11-20T01:58:42;90.18;;;36.63;;
66546;SDS011;53400;50.364;14.874;2022-11-20T02:01:12;82.75;;;36.45;;
66546;SDS011;53400;50.364;14.874;2022-11-20T02:03:40;81.97;;;36.17;;
66546;SDS011;53400;50.364;14.874;2022-11-20T02:06:08;98.50;;;40.17;;
66546;SDS011;53400;50.364;14.874;2022-11-20T02:08:38;94.38;;;38.72;;
66546;SDS011;53400;50.364;14.874;2022-11-20T02:11:04;93.95;;;37.53;;
66546;SDS011;53400;50.364;14.874;2022-11-20T02:13:30;74.00;;;33.55;;
66546;SDS011;53400;50.364;14.874;2022-11-20T02:16:09;63.20;;;28.38;;
66546;SDS011;53400;50.364;14.874;2022-11-20T02:18:38;69.70;;;33.45;;
66546;SDS011;53400;50.364;14.874;2022-11-20T02:21:06;68.80;;;31.58;;
66546;SDS011;53400;50.364;14.874;2022-11-20T02:23:36;64.07;;;29.35;;
66546;SDS011;53400;50.364;14.874;2022-11-20T02:26:06;63.45;;;27.90;;
66546;SDS011;53400;50.364;14.874;2022-11-20T02:28:36;60.80;;;27.33;;
66546;SDS011;53400;50.364;14.874;2022-11-20T02:31:02;54.22;;;25.63;;
66546;SDS011;53400;50.364;14.874;2022-11-20T02:33:28;50.85;;;22.05;;
66546;SDS011;53400;50.364;14.874;2022-11-20T02:35:54;75.97;;;37.50;;
66546;SDS011;53400;50.364;14.874;2022-11-20T02:38:20;53.00;;;23.95;;
66546;SDS011;53400;50.364;14.874;2022-11-20T02:40:46;49.05;;;22.23;;
66546;SDS011;53400;50.364;14.874;2022-11-20T02:43:15;44.45;;;20.75;;
66546;SDS011;53400;50.364;14.874;2022-11-20T02:45:41;44.50;;;21.45;;
66546;SDS011;53400;50.364;14.874;2022-11-20T02:48:07;47.85;;;23.02;;
66546;SDS011;53400;50.364;14.874;2022-11-20T02:50:33;47.90;;;22.17;;
66546;SDS011;53400;50.364;14.874;2022-11-20T02:53:01;46.08;;;21.15;;
66546;SDS011;53400;50.364;14.874;2022-11-20T02:55:27;48.45;;;23.90;;
66546;SDS011;53400;50.364;14.874;2022-11-20T02:57:53;47.50;;;22.20;;
66546;SDS011;53400;50.364;14.874;2022-11-20T03:00:20;52.20;;;23.42;;
66546;SDS011;53400;50.364;14.874;2022-11-20T03:02:46;54.22;;;22.75;;
66546;SDS011;53400;50.364;14.874;2022-11-20T03:05:12;54.63;;;22.42;;
66546;SDS011;53400;50.364;14.874;2022-11-20T03:07:39;46.63;;;21.63;;
66546;SDS011;53400;50.364;14.874;2022-11-20T03:10:05;41.42;;;20.30;;
66546;SDS011;53400;50.364;14.874;2022-11-20T03:12:32;50.67;;;23.15;;
66546;SDS011;53400;50.364;14.874;2022-11-20T03:14:57;42.78;;;20.45;;
66546;SDS011;53400;50.364;14.874;2022-11-20T03:17:25;43.15;;;23.10;;
66546;SDS011;53400;50.364;14.874;2022-11-20T03:19:51;51.42;;;24.42;;
66546;SDS011;53400;50.364;14.874;2022-11-20T03:22:17;53.75;;;23.63;;
66546;SDS011;53400;50.364;14.874;2022-11-20T03:24:43;50.95;;;24.27;;
66546;SDS011;53400;50.364;14.874;2022-11-20T03:27:09;49.50;;;22.80;;
66546;SDS011;53400;50.364;14.874;2022-11-20T03:29:35;52.55;;;23.98;;
66546;SDS011;53400;50.364;14.874;2022-11-20T03:32:01;52.33;;;22.85;;
66546;SDS011;53400;50.364;14.874;2022-11-20T03:34:28;53.28;;;22.15;;
66546;SDS011;53400;50.364;14.874;2022-11-20T03:36:54;50.35;;;21.90;;
66546;SDS011;53400;50.364;14.874;2022-11-20T03:39:20;49.17;;;21.17;;
66546;SDS011;53400;50.364;14.874;2022-11-20T03:41:46;80.20;;;31.00;;
66546;SDS011;53400;50.364;14.874;2022-11-20T03:44:13;56.08;;;26.08;;
66546;SDS011;53400;50.364;14.874;2022-11-20T03:46:39;80.40;;;34.45;;
66546;SDS011;53400;50.364;14.874;2022-11-20T03:49:05;105.75;;;42.22;;
66546;SDS011;53400;50.364;14.874;2022-11-20T03:51:33;90.30;;;39.45;;
66546;SDS011;53400;50.364;14.874;2022-11-20T03:54:01;82.32;;;34.75;;
66546;SDS011;53400;50.364;14.874;2022-11-20T03:56:29;74.03;;;33.42;;
66546;SDS011;53400;50.364;14.874;2022-11-20T03:58:56;63.22;;;29.48;;
66546;SDS011;53400;50.364;14.874;2022-11-20T04:01:23;64.18;;;29.30;;
66546;SDS011;53400;50.364;14.874;2022-11-20T04:03:51;55.60;;;25.98;;
66546;SDS011;53400;50.364;14.874;2022-11-20T04:06:19;51.50;;;24.05;;
66546;SDS011;53400;50.364;14.874;2022-11-20T04:08:48;51.08;;;23.70;;
66546;SDS011;53400;50.364;14.874;2022-11-20T04:11:15;53.85;;;24.65;;
66546;SDS011;53400;50.364;14.874;2022-11-20T04:13:45;48.33;;;23.63;;
66546;SDS011;53400;50.364;14.874;2022-11-20T04:16:12;52.88;;;22.75;;
66546;SDS011;53400;50.364;14.874;2022-11-20T04:18:39;56.08;;;23.17;;
66546;SDS011;53400;50.364;14.874;2022-11-20T04:21:05;48.83;;;23.83;;
66546;SDS011;53400;50.364;14.874;2022-11-20T04:23:31;56.35;;;23.83;;
66546;SDS011;53400;50.364;14.874;2022-11-20T04:26:02;47.45;;;22.95;;
66546;SDS011;53400;50.364;14.874;2022-11-20T04:28:29;47.60;;;21.88;;
66546;SDS011;53400;50.364;14.874;2022-11-20T04:31:01;48.05;;;23.00;;
66546;SDS011;53400;50.364;14.874;2022-11-20T04:33:27;48.63;;;22.83;;
66546;SDS011;53400;50.364;14.874;2022-11-20T04:35:54;44.75;;;23.58;;
66546;SDS011;53400;50.364;14.874;2022-11-20T04:38:19;49.10;;;21.83;;
66546;SDS011;53400;50.364;14.874;2022-11-20T04:40:46;48.40;;;22.67;;
66546;SDS011;53400;50.364;14.874;2022-11-20T04:43:13;51.03;;;23.05;;
66546;SDS011;53400;50.364;14.874;2022-11-20T04:45:39;50.85;;;22.58;;
66546;SDS011;53400;50.364;14.874;2022-11-20T04:48:05;45.75;;;21.42;;
66546;SDS011;53400;50.364;14.874;2022-11-20T04:50:31;33.15;;;16.13;;
66546;SDS011;53400;50.364;14.874;2022-11-20T04:52:56;50.35;;;22.33;;
66546;SDS011;53400;50.364;14.874;2022-11-20T04:55:25;51.10;;;21.35;;
66546;SDS011;53400;50.364;14.874;2022-11-20T04:57:50;52.83;;;22.77;;
66546;SDS011;53400;50.364;14.874;2022-11-20T05:00:18;48.33;;;21.13;;
66546;SDS011;53400;50.364;14.874;2022-11-20T05:02:44;47.20;;;22.27;;
66546;SDS011;53400;50.364;14.874;2022-11-20T05:05:10;52.13;;;23.00;;
66546;SDS011;53400;50.364;14.874;2022-11-20T05:07:36;48.78;;;22.10;;
66546;SDS011;53400;50.364;14.874;2022-11-20T05:10:02;51.85;;;24.08;;
66546;SDS011;53400;50.364;14.874;2022-11-20T05:12:29;51.60;;;23.92;;
66546;SDS011;53400;50.364;14.874;2022-11-20T05:14:55;49.95;;;21.90;;
66546;SDS011;53400;50.364;14.874;2022-11-20T05:17:22;56.97;;;23.88;;
66546;SDS011;53400;50.364;14.874;2022-11-20T05:19:48;44.70;;;21.08;;
66546;SDS011;53400;50.364;14.874;2022-11-20T05:22:14;46.72;;;22.25;;
66546;SDS011;53400;50.364;14.874;2022-11-20T05:24:40;42.13;;;21.80;;
66546;SDS011;53400;50.364;14.874;2022-11-20T05:27:06;47.67;;;20.83;;
66546;SDS011;53400;50.364;14.874;2022-11-20T05:29:32;43.33;;;22.45;;
66546;SDS011;53400;50.364;14.874;2022-11-20T05:31:58;46.75;;;22.92;;
66546;SDS011;53400;50.364;14.874;2022-11-20T05:34:28;51.63;;;24.42;;
66546;SDS011;53400;50.364;14.874;2022-11-20T05:36:54;46.90;;;21.80;;
66546;SDS011;53400;50.364;14.874;2022-11-20T05:39:20;41.25;;;18.65;;
66546;SDS011;53400;50.364;14.874;2022-11-20T05:41:46;39.45;;;20.02;;
66546;SDS011;53400;50.364;14.874;2022-11-20T05:44:32;42.55;;;20.20;;
66546;SDS011;53400;50.364;14.874;2022-11-20T05:46:57;42.58;;;19.17;;
66546;SDS011;53400;50.364;14.874;2022-11-20T05:49:25;42.97;;;19.70;;
66546;SDS011;53400;50.364;14.874;2022-11-20T05:51:51;46.20;;;20.67;;
66546;SDS011;53400;50.364;14.874;2022-11-20T05:54:17;40.28;;;19.23;;
66546;SDS011;53400;50.364;14.874;2022-11-20T05:56:43;49.70;;;22.38;;
66546;SDS011;53400;50.364;14.874;2022-11-20T05:59:09;46.92;;;23.90;;
66546;SDS011;53400;50.364;14.874;2022-11-20T06:01:35;49.95;;;25.75;;
66546;SDS011;53400;50.364;14.874;2022-11-20T06:04:01;49.88;;;25.15;;
66546;SDS011;53400;50.364;14.874;2022-11-20T06:06:29;47.88;;;22.33;;
66546;SDS011;53400;50.364;14.874;2022-11-20T06:08:55;42.70;;;21.77;;
66546;SDS011;53400;50.364;14.874;2022-11-20T06:11:21;52.60;;;23.13;;
66546;SDS011;53400;50.364;14.874;2022-11-20T06:13:47;45.67;;;20.77;;
66546;SDS011;53400;50.364;14.874;2022-11-20T06:16:14;51.78;;;22.83;;
66546;SDS011;53400;50.364;14.874;2022-11-20T06:18:41;46.95;;;23.60;;
66546;SDS011;53400;50.364;14.874;2022-11-20T06:21:08;53.28;;;24.85;;
66546;SDS011;53400;50.364;14.874;2022-11-20T06:23:36;56.40;;;24.60;;
66546;SDS011;53400;50.364;14.874;2022-11-20T06:26:03;51.95;;;22.70;;
66546;SDS011;53400;50.364;14.874;2022-11-20T06:28:30;51.75;;;24.08;;
66546;SDS011;53400;50.364;14.874;2022-11-20T06:30:56;47.45;;;23.92;;
66546;SDS011;53400;50.364;14.874;2022-11-20T06:33:23;42.47;;;20.90;;
66546;SDS011;53400;50.364;14.874;2022-11-20T06:35:49;48.08;;;22.58;;
66546;SDS011;53400;50.364;14.874;2022-11-20T06:38:15;50.88;;;25.08;;
66546;SDS011;53400;50.364;14.874;2022-11-20T06:40:42;53.72;;;27.13;;
66546;SDS011;53400;50.364;14.874;2022-11-20T06:43:09;52.85;;;26.80;;
66546;SDS011;53400;50.364;14.874;2022-11-20T06:45:35;54.05;;;25.23;;
66546;SDS011;53400;50.364;14.874;2022-11-20T06:48:01;49.70;;;24.30;;
66546;SDS011;53400;50.364;14.874;2022-11-20T06:50:28;48.35;;;25.77;;
66546;SDS011;53400;50.364;14.874;2022-11-20T06:52:54;50.60;;;24.60;;
66546;SDS011;53400;50.364;14.874;2022-11-20T06:55:20;50.50;;;23.83;;
66546;SDS011;53400;50.364;14.874;2022-11-20T06:57:48;46.50;;;23.27;;
66546;SDS011;53400;50.364;14.874;2022-11-20T07:00:14;53.70;;;24.98;;
66546;SDS011;53400;50.364;14.874;2022-11-20T07:02:40;51.80;;;25.35;;
66546;SDS011;53400;50.364;14.874;2022-11-20T07:05:06;61.20;;;28.95;;
66546;SDS011;53400;50.364;14.874;2022-11-20T07:07:32;66.22;;;29.42;;
66546;SDS011;53400;50.364;14.874;2022-11-20T07:09:58;91.40;;;41.28;;
66546;SDS011;53400;50.364;14.874;2022-11-20T07:12:24;109.05;;;45.72;;
66546;SDS011;53400;50.364;14.874;2022-11-20T07:14:51;72.90;;;32.90;;
66546;SDS011;53400;50.364;14.874;2022-11-20T07:17:17;41.60;;;20.23;;
66546;SDS011;53400;50.364;14.874;2022-11-20T07:19:43;44.88;;;19.80;;
66546;SDS011;53400;50.364;14.874;2022-11-20T07:22:09;45.60;;;18.23;;
66546;SDS011;53400;50.364;14.874;2022-11-20T07:24:35;40.38;;;18.27;;
66546;SDS011;53400;50.364;14.874;2022-11-20T07:27:01;38.17;;;18.70;;
66546;SDS011;53400;50.364;14.874;2022-11-20T07:29:27;42.72;;;19.55;;
66546;SDS011;53400;50.364;14.874;2022-11-20T07:31:54;34.95;;;17.50;;
66546;SDS011;53400;50.364;14.874;2022-11-20T07:34:21;37.03;;;17.77;;
66546;SDS011;53400;50.364;14.874;2022-11-20T07:36:47;36.17;;;15.82;;
66546;SDS011;53400;50.364;14.874;2022-11-20T07:39:13;32.70;;;15.90;;
66546;SDS011;53400;50.364;14.874;2022-11-20T07:41:39;40.40;;;18.23;;
66546;SDS011;53400;50.364;14.874;2022-11-20T07:44:05;34.08;;;16.60;;
66546;SDS011;53400;50.364;14.874;2022-11-20T07:46:31;36.63;;;16.67;;
66546;SDS011;53400;50.364;14.874;2022-11-20T07:48:58;42.28;;;17.70;;
66546;SDS011;53400;50.364;14.874;2022-11-20T07:51:24;39.67;;;18.15;;
66546;SDS011;53400;50.364;14.874;2022-11-20T07:53:51;36.45;;;15.30;;
66546;SDS011;53400;50.364;14.874;2022-11-20T07:56:17;29.55;;;14.85;;
66546;SDS011;53400;50.364;14.874;2022-11-20T07:58:43;33.92;;;16.65;;
66546;SDS011;53400;50.364;14.874;2022-11-20T08:01:09;34.65;;;16.70;;
66546;SDS011;53400;50.364;14.874;2022-11-20T08:03:35;35.80;;;18.20;;
66546;SDS011;53400;50.364;14.874;2022-11-20T08:06:04;34.17;;;16.70;;
66546;SDS011;53400;50.364;14.874;2022-11-20T08:08:31;38.47;;;18.48;;
66546;SDS011;53400;50.364;14.874;2022-11-20T08:10:57;38.67;;;17.38;;
66546;SDS011;53400;50.364;14.874;2022-11-20T08:13:41;34.20;;;17.75;;
66546;SDS011;53400;50.364;14.874;2022-11-20T08:16:26;38.78;;;17.40;;
66546;SDS011;53400;50.364;14.874;2022-11-20T08:18:52;40.25;;;19.90;;
66546;SDS011;53400;50.364;14.874;2022-11-20T08:21:19;39.88;;;19.40;;
66546;SDS011;53400;50.364;14.874;2022-11-20T08:23:45;42.28;;;20.05;;
66546;SDS011;53400;50.364;14.874;2022-11-20T08:26:12;42.67;;;19.98;;
66546;SDS011;53400;50.364;14.874;2022-11-20T08:28:37;43.78;;;19.52;;
66546;SDS011;53400;50.364;14.874;2022-11-20T08:31:04;41.47;;;21.00;;
66546;SDS011;53400;50.364;14.874;2022-11-20T08:33:30;42.17;;;21.05;;
66546;SDS011;53400;50.364;14.874;2022-11-20T08:35:58;43.00;;;21.77;;
66546;SDS011;53400;50.364;14.874;2022-11-20T08:38:26;45.40;;;22.75;;
66546;SDS011;53400;50.364;14.874;2022-11-20T08:40:55;45.53;;;20.42;;
66546;SDS011;53400;50.364;14.874;2022-11-20T08:43:40;35.35;;;16.90;;
66546;SDS011;53400;50.364;14.874;2022-11-20T08:46:06;37.65;;;19.65;;
66546;SDS011;53400;50.364;14.874;2022-11-20T08:48:32;42.00;;;20.08;;
66546;SDS011;53400;50.364;14.874;2022-11-20T08:50:58;40.97;;;19.20;;
66546;SDS011;53400;50.364;14.874;2022-11-20T08:53:24;42.28;;;19.45;;
66546;SDS011;53400;50.364;14.874;2022-11-20T08:55:52;45.38;;;20.98;;
66546;SDS011;53400;50.364;14.874;2022-11-20T08:58:17;42.28;;;21.27;;
66546;SDS011;53400;50.364;14.874;2022-11-20T09:00:43;43.35;;;21.73;;
66546;SDS011;53400;50.364;14.874;2022-11-20T09:03:10;40.72;;;19.70;;
66546;SDS011;53400;50.364;14.874;2022-11-20T09:05:37;37.08;;;17.80;;
66546;SDS011;53400;50.364;14.874;2022-11-20T09:08:03;41.85;;;20.45;;
66546;SDS011;53400;50.364;14.874;2022-11-20T09:10:29;40.58;;;19.63;;
66546;SDS011;53400;50.364;14.874;2022-11-20T09:12:57;48.22;;;22.50;;
66546;SDS011;53400;50.364;14.874;2022-11-20T09:15:24;46.95;;;23.23;;
66546;SDS011;53400;50.364;14.874;2022-11-20T09:17:50;44.13;;;19.50;;
66546;SDS011;53400;50.364;14.874;2022-11-20T09:20:17;39.03;;;20.20;;
66546;SDS011;53400;50.364;14.874;2022-11-20T09:22:44;32.83;;;17.83;;
66546;SDS011;53400;50.364;14.874;2022-11-20T09:25:10;54.13;;;23.70;;
66546;SDS011;53400;50.364;14.874;2022-11-20T09:27:35;44.70;;;22.88;;
66546;SDS011;53400;50.364;14.874;2022-11-20T09:30:03;39.28;;;19.52;;
66546;SDS011;53400;50.364;14.874;2022-11-20T09:32:30;36.58;;;19.63;;
66546;SDS011;53400;50.364;14.874;2022-11-20T09:34:56;45.88;;;20.27;;
66546;SDS011;53400;50.364;14.874;2022-11-20T09:37:22;45.47;;;22.45;;
66546;SDS011;53400;50.364;14.874;2022-11-20T09:39:49;43.70;;;20.23;;
66546;SDS011;53400;50.364;14.874;2022-11-20T09:42:18;42.00;;;19.73;;
66546;SDS011;53400;50.364;14.874;2022-11-20T09:45:01;49.22;;;21.55;;
66546;SDS011;53400;50.364;14.874;2022-11-20T09:47:37;43.67;;;19.70;;
66546;SDS011;53400;50.364;14.874;2022-11-20T09:50:23;46.25;;;23.23;;
66546;SDS011;53400;50.364;14.874;2022-11-20T09:52:58;43.30;;;22.30;;
66546;SDS011;53400;50.364;14.874;2022-11-20T09:55:33;44.58;;;21.63;;
66546;SDS011;53400;50.364;14.874;2022-11-20T09:58:01;42.78;;;21.65;;
66546;SDS011;53400;50.364;14.874;2022-11-20T10:00:33;43.78;;;23.08;;
66546;SDS011;53400;50.364;14.874;2022-11-20T10:03:01;44.90;;;21.88;;
66546;SDS011;53400;50.364;14.874;2022-11-20T10:05:33;48.17;;;22.90;;
66546;SDS011;53400;50.364;14.874;2022-11-20T10:08:07;47.78;;;21.65;;
66546;SDS011;53400;50.364;14.874;2022-11-20T10:10:42;40.72;;;20.33;;
66546;SDS011;53400;50.364;14.874;2022-11-20T10:13:17;45.13;;;21.17;;
66546;SDS011;53400;50.364;14.874;2022-11-20T10:15:59;46.58;;;23.30;;
66546;SDS011;53400;50.364;14.874;2022-11-20T10:18:46;44.17;;;22.15;;
66546;SDS011;53400;50.364;14.874;2022-11-20T10:21:26;42.42;;;21.92;;
66546;SDS011;53400;50.364;14.874;2022-11-20T10:27:09;43.30;;;21.73;;
66546;SDS011;53400;50.364;14.874;2022-11-20T10:29:51;48.83;;;22.38;;
66546;SDS011;53400;50.364;14.874;2022-11-20T10:32:30;43.20;;;20.88;;
66546;SDS011;53400;50.364;14.874;2022-11-20T10:35:04;45.63;;;20.55;;
66546;SDS011;53400;50.364;14.874;2022-11-20T10:37:40;48.40;;;21.02;;
66546;SDS011;53400;50.364;14.874;2022-11-20T10:40:17;51.05;;;24.50;;
66546;SDS011;53400;50.364;14.874;2022-11-20T10:42:49;58.08;;;27.20;;
66546;SDS011;53400;50.364;14.874;2022-11-20T10:45:21;43.10;;;21.08;;
66546;SDS011;53400;50.364;14.874;2022-11-20T10:48:07;45.42;;;22.75;;
66546;SDS011;53400;50.364;14.874;2022-11-20T10:50:37;48.13;;;23.15;;
66546;SDS011;53400;50.364;14.874;2022-11-20T10:53:13;45.13;;;20.83;;
66546;SDS011;53400;50.364;14.874;2022-11-20T10:55:46;46.03;;;22.48;;
66546;SDS011;53400;50.364;14.874;2022-11-20T11:01:04;43.83;;;20.83;;
66546;SDS011;53400;50.364;14.874;2022-11-20T11:03:32;45.10;;;21.25;;
66546;SDS011;53400;50.364;14.874;2022-11-20T11:05:59;42.75;;;21.30;;
66546;SDS011;53400;50.364;14.874;2022-11-20T11:08:34;47.88;;;21.85;;
66546;SDS011;53400;50.364;14.874;2022-11-20T11:11:02;46.00;;;19.60;;
66546;SDS011;53400;50.364;14.874;2022-11-20T11:13:40;42.97;;;20.50;;
66546;SDS011;53400;50.364;14.874;2022-11-20T11:16:16;48.15;;;22.42;;
66546;SDS011;53400;50.364;14.874;2022-11-20T11:18:47;42.38;;;20.73;;
66546;SDS011;53400;50.364;14.874;2022-11-20T11:21:13;47.90;;;21.60;;
66546;SDS011;53400;50.364;14.874;2022-11-20T11:23:47;43.20;;;20.85;;
66546;SDS011;53400;50.364;14.874;2022-11-20T11:26:23;47.83;;;20.27;;
66546;SDS011;53400;50.364;14.874;2022-11-20T11:28:53;44.95;;;21.50;;
66546;SDS011;53400;50.364;14.874;2022-11-20T11:31:24;40.75;;;20.80;;
66546;SDS011;53400;50.364;14.874;2022-11-20T11:34:02;45.40;;;22.35;;
66546;SDS011;53400;50.364;14.874;2022-11-20T11:36:29;48.90;;;22.15;;
66546;SDS011;53400;50.364;14.874;2022-11-20T11:38:58;45.03;;;22.45;;
66546;SDS011;53400;50.364;14.874;2022-11-20T11:41:25;42.78;;;21.10;;
66546;SDS011;53400;50.364;14.874;2022-11-20T11:43:55;48.38;;;21.55;;
66546;SDS011;53400;50.364;14.874;2022-11-20T11:46:43;43.90;;;22.98;;
66546;SDS011;53400;50.364;14.874;2022-11-20T11:49:19;43.63;;;21.65;;
66546;SDS011;53400;50.364;14.874;2022-11-20T11:51:47;48.03;;;23.60;;
66546;SDS011;53400;50.364;14.874;2022-11-20T11:54:26;43.17;;;21.52;;
66546;SDS011;53400;50.364;14.874;2022-11-20T11:56:58;46.70;;;23.95;;
66546;SDS011;53400;50.364;14.874;2022-11-20T11:59:28;45.25;;;22.45;;
66546;SDS011;53400;50.364;14.874;2022-11-20T12:02:11;45.90;;;22.17;;
66546;SDS011;53400;50.364;14.874;2022-11-20T12:04:50;46.17;;;22.25;;
66546;SDS011;53400;50.364;14.874;2022-11-20T12:07:21;45.78;;;23.70;;
66546;SDS011;53400;50.364;14.874;2022-11-20T12:09:53;44.05;;;21.30;;
66546;SDS011;53400;50.364;14.874;2022-11-20T12:12:24;46.33;;;21.25;;
66546;SDS011;53400;50.364;14.874;2022-11-20T12:14:56;44.78;;;23.33;;
66546;SDS011;53400;50.364;14.874;2022-11-20T12:17:23;46.10;;;22.60;;
66546;SDS011;53400;50.364;14.874;2022-11-20T12:19:51;44.45;;;22.40;;
66546;SDS011;53400;50.364;14.874;2022-11-20T12:22:19;44.75;;;21.75;;
66546;SDS011;53400;50.364;14.874;2022-11-20T12:24:58;41.70;;;22.58;;
66546;SDS011;53400;50.364;14.874;2022-11-20T12:27:35;47.45;;;22.33;;
66546;SDS011;53400;50.364;14.874;2022-11-20T12:30:10;66.53;;;29.35;;
66546;SDS011;53400;50.364;14.874;2022-11-20T12:32:42;78.13;;;36.10;;
66546;SDS011;53400;50.364;14.874;2022-11-20T12:35:30;67.85;;;34.40;;
66546;SDS011;53400;50.364;14.874;2022-11-20T12:38:11;49.60;;;24.90;;
66546;SDS011;53400;50.364;14.874;2022-11-20T12:40:55;84.30;;;38.05;;
66546;SDS011;53400;50.364;14.874;2022-11-20T12:43:33;81.20;;;36.35;;
66546;SDS011;53400;50.364;14.874;2022-11-20T12:46:27;203.18;;;89.13;;
66546;SDS011;53400;50.364;14.874;2022-11-20T12:49:12;43.35;;;21.73;;
66546;SDS011;53400;50.364;14.874;2022-11-20T12:52:04;38.05;;;19.48;;
66546;SDS011;53400;50.364;14.874;2022-11-20T12:57:38;44.35;;;21.55;;
66546;SDS011;53400;50.364;14.874;2022-11-20T13:00:25;46.33;;;23.23;;
66546;SDS011;53400;50.364;14.874;2022-11-20T13:03:12;46.58;;;23.45;;
66546;SDS011;53400;50.364;14.874;2022-11-20T13:05:55;43.88;;;21.38;;
66546;SDS011;53400;50.364;14.874;2022-11-20T13:08:33;47.90;;;24.35;;
66546;SDS011;53400;50.364;14.874;2022-11-20T13:11:01;49.10;;;23.50;;
66546;SDS011;53400;50.364;14.874;2022-11-20T13:13:39;46.95;;;22.55;;
66546;SDS011;53400;50.364;14.874;2022-11-20T13:16:12;43.25;;;22.00;;
66546;SDS011;53400;50.364;14.874;2022-11-20T13:18:43;50.40;;;25.20;;
66546;SDS011;53400;50.364;14.874;2022-11-20T13:21:14;46.97;;;23.40;;
66546;SDS011;53400;50.364;14.874;2022-11-20T13:23:42;39.10;;;19.05;;
66546;SDS011;53400;50.364;14.874;2022-11-20T13:26:14;44.63;;;21.30;;
66546;SDS011;53400;50.364;14.874;2022-11-20T13:28:43;45.00;;;23.85;;
66546;SDS011;53400;50.364;14.874;2022-11-20T13:31:23;46.33;;;25.95;;
66546;SDS011;53400;50.364;14.874;2022-11-20T13:33:56;44.17;;;21.60;;
66546;SDS011;53400;50.364;14.874;2022-11-20T13:36:24;45.35;;;23.92;;
66546;SDS011;53400;50.364;14.874;2022-11-20T13:38:53;40.88;;;19.83;;
66546;SDS011;53400;50.364;14.874;2022-11-20T13:41:24;53.20;;;25.13;;
66546;SDS011;53400;50.364;14.874;2022-11-20T13:43:54;51.97;;;24.92;;
66546;SDS011;53400;50.364;14.874;2022-11-20T13:46:34;46.88;;;23.40;;
66546;SDS011;53400;50.364;14.874;2022-11-20T13:49:05;49.45;;;23.38;;
66546;SDS011;53400;50.364;14.874;2022-11-20T13:51:36;53.22;;;23.50;;
66546;SDS011;53400;50.364;14.874;2022-11-20T13:57:29;49.80;;;24.48;;
66546;SDS011;53400;50.364;14.874;2022-11-20T14:00:11;45.08;;;22.20;;
66546;SDS011;53400;50.364;14.874;2022-11-20T14:02:38;45.40;;;21.98;;
66546;SDS011;53400;50.364;14.874;2022-11-20T14:05:04;46.08;;;22.75;;
66546;SDS011;53400;50.364;14.874;2022-11-20T14:07:34;41.40;;;21.10;;
66546;SDS011;53400;50.364;14.874;2022-11-20T14:10:18;44.55;;;22.77;;
66546;SDS011;53400;50.364;14.874;2022-11-20T14:12:45;50.67;;;24.48;;
66546;SDS011;53400;50.364;14.874;2022-11-20T14:15:22;43.53;;;21.38;;
66546;SDS011;53400;50.364;14.874;2022-11-20T14:17:50;45.00;;;22.27;;
66546;SDS011;53400;50.364;14.874;2022-11-20T14:20:16;45.15;;;21.60;;
66546;SDS011;53400;50.364;14.874;2022-11-20T14:22:48;45.80;;;22.10;;
66546;SDS011;53400;50.364;14.874;2022-11-20T14:25:20;53.17;;;25.02;;
66546;SDS011;53400;50.364;14.874;2022-11-20T14:27:50;48.65;;;22.50;;
66546;SDS011;53400;50.364;14.874;2022-11-20T14:30:19;49.05;;;23.42;;
66546;SDS011;53400;50.364;14.874;2022-11-20T14:32:46;46.08;;;23.63;;
66546;SDS011;53400;50.364;14.874;2022-11-20T14:35:14;51.17;;;26.13;;